createdAt,value
2023-04-26T00:01:36.815Z,5.07
2023-04-26T00:04:40.303Z,5.80
2023-04-26T00:07:43.759Z,5.57
2023-04-26T00:10:46.912Z,5.00
2023-04-26T00:13:49.459Z,5.13
2023-04-26T00:16:52.267Z,5.00
2023-04-26T00:19:57.578Z,5.22
2023-04-26T00:23:00.686Z,5.65
2023-04-26T00:26:03.833Z,5.55
2023-04-26T00:29:07.278Z,5.38
2023-04-26T00:32:10.051Z,5.28
2023-04-26T00:35:12.732Z,5.85
2023-04-26T00:38:15.468Z,5.35
2023-04-26T00:41:18.113Z,5.30
2023-04-26T00:44:21.034Z,5.05
2023-04-26T00:47:26.092Z,5.45
2023-04-26T00:50:31.222Z,5.68
2023-04-26T00:56:40.707Z,5.35
2023-04-26T00:59:43.322Z,6.07
2023-04-26T01:02:46.332Z,5.25
2023-04-26T01:05:49.242Z,6.13
2023-04-26T01:08:53.849Z,4.72
2023-04-26T01:11:58.771Z,6.47
2023-04-26T01:15:01.565Z,5.47
2023-04-26T01:18:05.116Z,5.47
2023-04-26T01:21:11.451Z,5.03
2023-04-26T01:24:14.451Z,4.88
2023-04-26T01:27:17.775Z,5.53
2023-04-26T01:30:21.087Z,5.35
2023-04-26T01:33:23.998Z,5.75
2023-04-26T01:36:27.786Z,5.47
2023-04-26T01:39:31.100Z,5.57
2023-04-26T01:42:34.030Z,6.20
2023-04-26T01:45:36.815Z,5.05
2023-04-26T01:48:59.108Z,6.18
2023-04-26T01:52:02.287Z,5.68
2023-04-26T01:55:07.357Z,5.47
2023-04-26T01:58:09.946Z,5.65
2023-04-26T02:01:12.666Z,5.78
2023-04-26T02:04:15.283Z,5.10
2023-04-26T02:07:20.155Z,5.10
2023-04-26T02:10:22.892Z,5.38
2023-04-26T02:13:27.234Z,5.00
2023-04-26T02:16:30.666Z,5.47
2023-04-26T02:19:33.455Z,5.15
2023-04-26T02:22:36.516Z,5.18
2023-04-26T02:25:39.568Z,5.00
2023-04-26T02:28:43.107Z,4.95
2023-04-26T02:31:45.776Z,4.57
2023-04-26T02:34:48.485Z,4.75
2023-04-26T02:37:52.440Z,5.13
2023-04-26T02:41:00.028Z,5.40
2023-04-26T02:44:02.707Z,4.88
2023-04-26T02:47:05.500Z,4.50
2023-04-26T02:50:09.534Z,4.75
2023-04-26T02:53:14.125Z,5.03
2023-04-26T02:56:17.074Z,4.80
2023-04-26T02:59:20.075Z,5.05
2023-04-26T03:02:24.530Z,5.15
2023-04-26T03:05:29.229Z,4.82
2023-04-26T03:08:31.801Z,4.28
2023-04-26T03:11:34.618Z,4.15
2023-04-26T03:14:38.276Z,4.65
2023-04-26T03:17:43.317Z,4.90
2023-04-26T03:20:46.992Z,4.40
2023-04-26T03:23:49.981Z,4.10
2023-04-26T03:26:52.953Z,4.45
2023-04-26T03:29:55.895Z,3.90
2023-04-26T03:32:58.742Z,4.47
2023-04-26T03:36:01.709Z,4.82
2023-04-26T03:39:06.168Z,4.50
2023-04-26T03:42:09.957Z,4.70
2023-04-26T03:45:12.911Z,4.50
2023-04-26T03:48:16.930Z,4.57
2023-04-26T03:51:20.009Z,4.85
2023-04-26T03:54:22.834Z,4.35
2023-04-26T03:57:25.786Z,5.03
2023-04-26T04:00:28.472Z,4.45
2023-04-26T04:03:31.398Z,4.13
2023-04-26T04:06:34.269Z,4.50
2023-04-26T04:09:37.024Z,4.43
2023-04-26T04:12:39.629Z,4.20
2023-04-26T04:15:42.447Z,4.88
2023-04-26T04:18:45.238Z,4.65
2023-04-26T04:21:54.397Z,4.20
2023-04-26T04:24:57.579Z,4.70
2023-04-26T04:28:02.134Z,4.28
2023-04-26T04:31:05.371Z,4.43
2023-04-26T04:34:08.871Z,4.18
2023-04-26T04:37:12.391Z,4.28
2023-04-26T04:40:16.199Z,4.32
2023-04-26T04:43:21.643Z,4.53
2023-04-26T04:46:25.496Z,4.25
2023-04-26T04:49:29.053Z,3.55
2023-04-26T04:52:33.427Z,4.28
2023-04-26T04:55:36.733Z,4.10
2023-04-26T04:58:39.638Z,4.05
2023-04-26T05:01:42.430Z,4.22
2023-04-26T05:04:49.363Z,4.60
2023-04-26T05:07:52.291Z,4.25
2023-04-26T05:10:55.758Z,4.13
2023-04-26T05:13:59.405Z,4.65
2023-04-26T05:17:02.032Z,5.30
2023-04-26T05:20:07.459Z,5.35
2023-04-26T05:23:10.919Z,5.03
2023-04-26T05:26:16.514Z,5.18
2023-04-26T05:29:32.258Z,5.10
2023-04-26T05:32:41.643Z,4.82
2023-04-26T05:35:59.882Z,4.97
2023-04-26T05:39:02.448Z,4.63
2023-04-26T05:42:05.376Z,5.07
2023-04-26T05:45:08.851Z,4.93
2023-04-26T05:48:12.124Z,4.95
2023-04-26T05:51:14.839Z,4.45
2023-04-26T05:54:19.321Z,5.30
2023-04-26T05:57:22.415Z,4.55
2023-04-26T06:00:26.063Z,5.22
2023-04-26T06:03:29.229Z,4.43
2023-04-26T06:06:32.178Z,4.70
2023-04-26T06:09:35.760Z,4.72
2023-04-26T06:12:39.414Z,4.95
2023-04-26T06:15:42.669Z,4.10
2023-04-26T06:18:46.244Z,4.55
2023-04-26T06:21:49.221Z,4.43
2023-04-26T06:24:52.182Z,4.10
2023-04-26T06:27:55.050Z,3.92
2023-04-26T06:30:58.385Z,4.00
2023-04-26T06:34:01.816Z,4.75
2023-04-26T06:37:07.737Z,4.32
2023-04-26T06:40:15.929Z,4.70
2023-04-26T06:43:19.123Z,4.45
2023-04-26T06:46:55.367Z,4.18
2023-04-26T06:49:58.053Z,4.40
2023-04-26T06:53:00.698Z,4.45
2023-04-26T06:56:03.690Z,4.15
2023-04-26T06:59:07.925Z,3.70
2023-04-26T07:02:10.886Z,4.13
2023-04-26T07:05:15.424Z,4.28
2023-04-26T07:08:18.404Z,4.40
2023-04-26T07:11:22.329Z,4.20
2023-04-26T07:14:26.620Z,4.65
2023-04-26T07:17:29.803Z,3.88
2023-04-26T07:20:32.338Z,3.53
2023-04-26T07:23:35.182Z,3.80
2023-04-26T07:26:37.961Z,3.78
2023-04-26T07:29:40.932Z,3.30
2023-04-26T07:32:43.690Z,3.75
2023-04-26T07:35:55.298Z,3.53
2023-04-26T07:42:00.395Z,3.58
2023-04-26T07:45:03.801Z,3.47
2023-04-26T07:48:06.664Z,3.20
2023-04-26T07:51:11.229Z,4.13
2023-04-26T07:54:13.743Z,4.60
2023-04-26T07:57:17.103Z,3.45
2023-04-26T08:00:20.045Z,3.30
2023-04-26T08:03:22.902Z,3.83
2023-04-26T08:06:26.113Z,3.35
2023-04-26T08:09:29.397Z,4.05
2023-04-26T08:12:33.738Z,2.90
2023-04-26T08:15:36.282Z,3.28
2023-04-26T08:18:39.124Z,3.38
2023-04-26T08:21:42.164Z,3.08
2023-04-26T08:24:51.730Z,3.30
2023-04-26T08:27:54.473Z,3.47
2023-04-26T08:30:58.326Z,3.67
2023-04-26T08:34:01.330Z,3.00
2023-04-26T08:37:07.881Z,2.80
2023-04-26T08:40:11.246Z,3.17
2023-04-26T08:43:17.170Z,3.10
2023-04-26T08:46:21.490Z,2.95
2023-04-26T08:49:53.171Z,3.20
2023-04-26T08:53:00.544Z,2.88
2023-04-26T08:56:05.031Z,3.10
2023-04-26T08:59:10.138Z,2.65
2023-04-26T09:02:31.747Z,3.53
2023-04-26T09:05:34.845Z,3.00
2023-04-26T09:08:41.773Z,3.40
2023-04-26T09:11:58.305Z,4.55
2023-04-26T09:15:04.692Z,3.00
2023-04-26T09:18:23.191Z,3.13
2023-04-26T09:21:26.255Z,2.92
2023-04-26T09:24:29.571Z,2.70
2023-04-26T09:27:40.624Z,3.13
2023-04-26T09:30:43.457Z,3.10
2023-04-26T09:34:01.213Z,2.78
2023-04-26T09:37:04.020Z,3.30
2023-04-26T09:40:19.561Z,2.40
2023-04-26T09:43:23.002Z,2.80
2023-04-26T09:46:25.729Z,4.43
2023-04-26T09:49:48.854Z,2.72
2023-04-26T09:52:51.515Z,2.78
2023-04-26T09:55:55.580Z,2.53
2023-04-26T09:59:01.342Z,3.05
2023-04-26T10:02:04.011Z,2.47
2023-04-26T10:05:07.669Z,2.67
2023-04-26T10:08:10.530Z,4.40
2023-04-26T10:11:14.030Z,2.28
2023-04-26T10:14:16.974Z,2.70
2023-04-26T10:17:20.913Z,2.60
2023-04-26T10:20:27.168Z,2.25
2023-04-26T10:23:30.313Z,2.72
2023-04-26T10:26:53.637Z,2.40
2023-04-26T10:29:56.572Z,2.28
2023-04-26T10:32:59.195Z,2.05
2023-04-26T10:36:01.928Z,2.30
2023-04-26T10:39:25.177Z,2.40
2023-04-26T10:42:30.426Z,2.50
2023-04-26T10:45:33.182Z,2.15
2023-04-26T10:48:37.012Z,2.75
2023-04-26T10:51:39.809Z,2.30
2023-04-26T10:54:49.416Z,2.58
2023-04-26T10:57:53.887Z,2.35
2023-04-26T11:01:16.618Z,2.25
2023-04-26T11:04:19.524Z,2.30
2023-04-26T11:07:38.645Z,2.30
2023-04-26T11:10:43.346Z,2.22
2023-04-26T11:13:47.326Z,2.63
2023-04-26T11:16:49.893Z,2.30
2023-04-26T11:19:52.506Z,2.67
2023-04-26T11:22:55.206Z,2.72
2023-04-26T11:26:03.436Z,2.30
2023-04-26T11:29:09.638Z,2.10
2023-04-26T11:32:14.536Z,2.15
2023-04-26T11:35:17.282Z,2.15
2023-04-26T11:38:28.489Z,2.25
2023-04-26T11:41:31.235Z,2.35
2023-04-26T11:44:35.614Z,2.60
2023-04-26T11:47:38.773Z,2.35
2023-04-26T11:50:42.690Z,2.40
2023-04-26T11:53:45.688Z,2.40
2023-04-26T11:56:48.255Z,2.08
2023-04-26T11:59:53.837Z,2.33
2023-04-26T12:02:58.323Z,2.20
2023-04-26T12:06:01.631Z,2.28
2023-04-26T12:09:24.457Z,2.17
2023-04-26T12:12:28.075Z,2.47
2023-04-26T12:15:32.969Z,3.60
2023-04-26T12:18:35.972Z,5.50
2023-04-26T12:21:43.105Z,4.13
2023-04-26T12:24:48.119Z,2.90
2023-04-26T12:27:50.672Z,2.53
2023-04-26T12:30:53.467Z,2.75
2023-04-26T12:33:56.233Z,2.55
2023-04-26T12:36:58.906Z,2.35
2023-04-26T12:40:01.748Z,2.47
2023-04-26T12:43:04.377Z,2.63
2023-04-26T12:46:07.011Z,2.15
2023-04-26T12:49:09.920Z,2.63
2023-04-26T12:52:12.654Z,2.20
2023-04-26T12:55:16.774Z,2.20
2023-04-26T12:58:19.416Z,2.17
2023-04-26T13:01:22.120Z,2.45
2023-04-26T13:04:24.893Z,2.53
2023-04-26T13:07:27.962Z,2.05
2023-04-26T13:10:30.764Z,2.35
2023-04-26T13:13:42.980Z,2.28
2023-04-26T13:16:46.591Z,2.40
2023-04-26T13:19:49.354Z,2.50
2023-04-26T13:22:52.050Z,2.33
2023-04-26T13:25:54.742Z,2.45
2023-04-26T13:28:57.596Z,2.08
2023-04-26T13:32:00.685Z,2.58
2023-04-26T13:35:04.347Z,2.42
2023-04-26T13:38:07.066Z,2.22
2023-04-26T13:41:11.243Z,2.40
2023-04-26T13:44:15.814Z,2.47
2023-04-26T13:47:18.480Z,2.38
2023-04-26T13:50:22.027Z,2.20
2023-04-26T13:53:25.067Z,2.30
2023-04-26T13:56:27.852Z,2.17
2023-04-26T13:59:30.550Z,2.50
2023-04-26T14:02:33.910Z,2.72
2023-04-26T14:05:37.082Z,2.75
2023-04-26T14:08:39.680Z,2.60
2023-04-26T14:11:42.274Z,2.30
2023-04-26T14:14:46.455Z,1.80
2023-04-26T14:17:49.107Z,2.17
2023-04-26T14:20:52.274Z,2.25
2023-04-26T14:23:55.179Z,2.33
2023-04-26T14:26:58.508Z,2.08
2023-04-26T14:30:01.432Z,3.10
2023-04-26T14:33:04.516Z,2.38
2023-04-26T14:36:07.400Z,2.67
2023-04-26T14:39:10.181Z,2.22
2023-04-26T14:42:13.137Z,2.40
2023-04-26T14:45:15.849Z,2.03
2023-04-26T14:48:19.314Z,2.30
2023-04-26T14:51:22.459Z,2.03
2023-04-26T14:54:25.726Z,2.20
2023-04-26T14:57:28.417Z,2.40
2023-04-26T15:00:31.383Z,2.10
2023-04-26T15:03:34.090Z,2.40
2023-04-26T15:06:36.649Z,2.42
2023-04-26T15:09:39.381Z,2.28
2023-04-26T15:12:42.022Z,1.98
2023-04-26T15:15:44.616Z,2.05
2023-04-26T15:18:47.118Z,2.40
2023-04-26T15:21:49.780Z,2.30
2023-04-26T15:24:52.545Z,2.35
2023-04-26T15:27:55.356Z,2.13
2023-04-26T15:31:03.368Z,2.15
2023-04-26T15:34:05.901Z,2.97
2023-04-26T15:37:08.734Z,3.03
2023-04-26T15:40:12.206Z,2.75
2023-04-26T15:43:16.745Z,2.15
2023-04-26T15:46:19.460Z,2.05
2023-04-26T15:49:24.230Z,2.35
2023-04-26T15:55:32.340Z,2.90
2023-04-26T15:58:39.327Z,2.30
2023-04-26T16:01:43.774Z,2.53
2023-04-26T16:04:46.576Z,2.90
2023-04-26T16:07:49.306Z,2.30
2023-04-26T16:10:52.103Z,3.55
2023-04-26T16:13:54.914Z,2.88
2023-04-26T16:16:59.935Z,2.10
2023-04-26T16:20:04.954Z,2.13
2023-04-26T16:23:10.357Z,2.40
2023-04-26T16:26:13.042Z,2.78
2023-04-26T16:29:15.595Z,2.50
2023-04-26T16:32:18.289Z,2.20
2023-04-26T16:35:20.952Z,2.50
2023-04-26T16:38:23.589Z,2.10
2023-04-26T16:41:27.569Z,2.70
2023-04-26T16:44:31.071Z,3.30
2023-04-26T16:47:34.358Z,2.83
2023-04-26T16:50:37.862Z,2.25
2023-04-26T16:53:40.509Z,2.10
2023-04-26T16:56:44.098Z,2.70
2023-04-26T16:59:47.249Z,2.20
2023-04-26T17:02:50.595Z,2.40
2023-04-26T17:05:53.372Z,2.40
2023-04-26T17:08:56.488Z,2.35
2023-04-26T17:11:59.185Z,2.60
2023-04-26T17:15:04.329Z,2.17
2023-04-26T17:18:08.390Z,2.30
2023-04-26T17:21:11.358Z,2.03
2023-04-26T17:24:14.397Z,2.30
2023-04-26T17:27:18.039Z,2.22
2023-04-26T17:30:21.758Z,2.28
2023-04-26T17:33:26.070Z,2.40
2023-04-26T17:36:29.006Z,2.60
2023-04-26T17:39:31.832Z,2.40
2023-04-26T17:42:34.767Z,2.15
2023-04-26T17:45:38.933Z,2.50
2023-04-26T17:48:42.010Z,2.58
2023-04-26T17:51:44.780Z,2.40
2023-04-26T17:54:48.000Z,2.78
2023-04-26T17:57:50.872Z,2.10
2023-04-26T18:00:53.954Z,2.15
2023-04-26T18:03:57.138Z,2.55
2023-04-26T18:07:00.153Z,2.78
2023-04-26T18:10:04.278Z,2.38
2023-04-26T18:13:07.433Z,2.28
2023-04-26T18:16:13.030Z,3.30
2023-04-26T18:19:16.351Z,2.45
2023-04-26T18:22:19.117Z,2.40
2023-04-26T18:25:22.679Z,2.17
2023-04-26T18:28:25.782Z,3.00
2023-04-26T18:31:29.692Z,2.30
2023-04-26T18:34:34.300Z,2.45
2023-04-26T18:37:38.093Z,2.45
2023-04-26T18:40:45.506Z,2.25
2023-04-26T18:43:48.758Z,2.97
2023-04-26T18:46:55.987Z,2.72
2023-04-26T18:49:59.628Z,2.55
2023-04-26T18:53:06.409Z,2.78
2023-04-26T18:56:09.839Z,3.20
2023-04-26T18:59:13.518Z,2.75
2023-04-26T19:02:17.101Z,2.80
2023-04-26T19:05:20.897Z,2.92
2023-04-26T19:08:26.191Z,2.90
2023-04-26T19:11:29.621Z,2.75
2023-04-26T19:14:33.646Z,3.13
2023-04-26T19:17:40.736Z,2.75
2023-04-26T19:20:45.361Z,2.83
2023-04-26T19:23:48.696Z,2.45
2023-04-26T19:26:52.123Z,3.00
2023-04-26T19:29:55.421Z,2.83
2023-04-26T19:32:58.697Z,2.97
2023-04-26T19:36:02.024Z,2.55
2023-04-26T19:39:05.414Z,3.00
2023-04-26T19:42:09.229Z,2.83
2023-04-26T19:45:13.610Z,3.25
2023-04-26T19:48:16.903Z,2.92
2023-04-26T19:51:20.184Z,3.58
2023-04-26T19:54:23.526Z,3.30
2023-04-26T19:57:27.050Z,3.80
2023-04-26T20:00:30.925Z,3.70
2023-04-26T20:03:34.519Z,3.28
2023-04-26T20:06:38.045Z,3.20
2023-04-26T20:09:41.765Z,2.85
2023-04-26T20:12:45.583Z,3.30
2023-04-26T20:15:49.092Z,3.08
2023-04-26T20:18:52.821Z,2.88
2023-04-26T20:22:11.312Z,3.20
2023-04-26T20:25:15.886Z,3.05
2023-04-26T20:28:27.393Z,3.08
2023-04-26T20:31:32.902Z,2.58
2023-04-26T20:34:36.282Z,3.10
2023-04-26T20:40:43.804Z,2.88
2023-04-26T20:43:46.567Z,5.97
2023-04-26T20:46:49.507Z,3.03
2023-04-26T20:49:52.838Z,3.30
2023-04-26T20:52:56.613Z,3.60
2023-04-26T20:55:59.371Z,3.03
2023-04-26T20:59:02.597Z,2.90
2023-04-26T21:02:07.541Z,2.78
2023-04-26T21:05:14.432Z,3.05
2023-04-26T21:08:17.065Z,2.75
2023-04-26T21:11:19.873Z,2.95
2023-04-26T21:14:22.523Z,2.80
2023-04-26T21:17:25.186Z,3.13
2023-04-26T21:20:27.754Z,3.03
2023-04-26T21:23:30.326Z,3.35
2023-04-26T21:26:32.979Z,3.03
2023-04-26T21:29:35.683Z,5.25
2023-04-26T21:32:40.330Z,4.22
2023-04-26T21:35:42.866Z,3.53
2023-04-26T21:38:45.839Z,3.15
2023-04-26T21:41:48.519Z,3.17
2023-04-26T21:44:51.196Z,3.17
2023-04-26T21:47:53.793Z,3.30
2023-04-26T21:50:57.117Z,3.17
2023-04-26T21:53:59.785Z,3.53
2023-04-26T21:57:06.651Z,3.30
2023-04-26T22:00:11.904Z,3.40
2023-04-26T22:03:18.367Z,3.85
2023-04-26T22:06:21.575Z,4.15
2023-04-26T22:09:24.444Z,3.40
2023-04-26T22:12:27.671Z,3.35
2023-04-26T22:15:30.879Z,3.55
2023-04-26T22:18:33.721Z,3.20
2023-04-26T22:21:36.570Z,3.15
2023-04-26T22:24:39.131Z,2.88
2023-04-26T22:27:41.632Z,3.47
2023-04-26T22:30:44.227Z,3.25
2023-04-26T22:33:47.857Z,2.85
2023-04-26T22:36:50.521Z,2.80
2023-04-26T22:39:53.645Z,2.85
2023-04-26T22:42:56.470Z,2.97
2023-04-26T22:45:59.457Z,2.88
2023-04-26T22:49:02.108Z,3.40
2023-04-26T22:52:11.636Z,2.80
2023-04-26T22:55:19.875Z,2.97
2023-04-26T22:58:22.543Z,3.10
2023-04-26T23:01:25.288Z,2.90
2023-04-26T23:04:27.918Z,3.00
2023-04-26T23:07:30.762Z,2.90
2023-04-26T23:10:33.592Z,3.15
2023-04-26T23:13:38.025Z,3.85
2023-04-26T23:16:40.688Z,3.40
2023-04-26T23:19:43.317Z,3.58
2023-04-26T23:22:46.070Z,4.45
2023-04-26T23:25:48.859Z,3.15
2023-04-26T23:28:51.389Z,2.72
2023-04-26T23:31:54.191Z,3.20
2023-04-26T23:34:56.814Z,3.08
2023-04-26T23:37:59.377Z,3.33
2023-04-26T23:41:02.000Z,2.60
2023-04-26T23:44:04.728Z,3.03
2023-04-26T23:47:07.575Z,2.95
2023-04-26T23:50:10.701Z,3.33
2023-04-26T23:53:13.330Z,3.03
2023-04-26T23:56:16.230Z,2.90
2023-04-26T23:59:18.809Z,3.00
